Time;durP1;ratioP1;P1;durP2;ratioP2;P2;SDS_P1;SDS_P2;PMS_P1;PMS_P2;Temp;Humidity;BMP_temperature;BMP_pressure;BME280_temperature;BME280_humidity;BME280_pressure;Samples;Min_cycle;Max_cycle;Signal;HPM_P1;HPM_P2
2022/09/26 00:00:33;;;;;;;;;2.40;2.40;;;;;15.36;54.37;100749.84;4998849;28;45513;-59
2022/09/26 00:02:58;;;;;;;;;3.00;3.00;;;;;15.40;54.86;100761.25;5016720;28;45353;-56
2022/09/26 00:05:24;;;;;;;;;3.75;1.00;;;;;15.16;54.33;100730.91;5015888;28;45969;-58
2022/09/26 00:07:49;;;;;;;;;2.00;2.00;;;;;15.41;54.36;100760.16;4998610;28;45432;-57
2022/09/26 00:10:15;;;;;;;;;2.00;2.00;;;;;15.39;54.79;100752.13;5016488;28;45445;-56
2022/09/26 00:12:40;;;;;;;;;2.00;2.00;;;;;15.22;54.96;100754.81;5016655;28;45420;-56
2022/09/26 00:15:06;;;;;;;;;3.00;3.00;;;;;15.04;55.39;100734.53;5015817;28;45969;-54
2022/09/26 00:17:32;;;;;;;;;2.50;1.00;;;;;15.07;55.46;100749.78;5015994;28;45830;-56
2022/09/26 00:19:57;;;;;;;;;2.75;1.75;;;;;15.12;55.91;100751.81;5016278;28;45351;-54
2022/09/26 00:22:23;;;;;;;;;1.00;1.00;;;;;14.82;55.66;100716.88;4998487;28;45599;-51
2022/09/26 00:24:48;;;;;;;;;1.75;1.75;;;;;14.93;55.84;100743.66;5015907;28;45446;-56
2022/09/26 00:27:14;;;;;;;;;1.25;1.25;;;;;14.91;56.00;100732.84;4994553;28;45406;-56
2022/09/26 00:29:39;;;;;;;;;0.75;0.75;;;;;14.71;55.91;100705.56;4996106;28;45367;-58
2022/09/26 00:32:05;;;;;;;;;1.00;0.00;;;;;14.95;56.05;100724.94;4996538;28;45276;-57
2022/09/26 00:34:30;;;;;;;;;2.25;2.25;;;;;14.97;55.83;100725.53;4995638;28;46898;-58
2022/09/26 00:36:57;;;;;;;;;2.50;2.00;;;;;14.98;55.88;100721.66;4996371;28;45311;-57
2022/09/26 00:39:22;;;;;;;;;3.60;2.00;;;;;14.95;55.65;100719.41;4995888;28;45305;-58
2022/09/26 00:41:48;;;;;;;;;2.50;1.75;;;;;14.87;55.72;100714.22;4995982;28;45472;-58
2022/09/26 00:44:43;;;;;;;;;2.50;2.50;;;;;14.88;56.57;100705.69;4995710;28;45921;-58
2022/09/26 00:47:48;;;;;;;;;1.00;1.00;;;;;14.93;55.96;100704.97;4994798;28;45423;-57
2022/09/26 00:50:21;;;;;;;;;3.00;3.00;;;;;14.31;56.15;100598.59;4994610;28;45422;-57
2022/09/26 00:52:58;;;;;;;;;3.60;2.00;;;;;15.07;55.79;100710.22;4994594;28;45397;-54
2022/09/26 00:55:27;;;;;;;;;1.80;1.80;;;;;15.04;55.95;100697.75;4978363;28;45492;-55
2022/09/26 00:57:57;;;;;;;;;1.60;1.60;;;;;14.97;56.21;100692.34;4978210;28;45429;-56
2022/09/26 01:00:22;;;;;;;;;1.60;1.60;;;;;14.86;56.34;100699.59;4958603;28;45966;-55
2022/09/26 01:02:48;;;;;;;;;2.00;2.00;;;;;14.71;56.23;100677.94;4993737;28;45462;-55
2022/09/26 01:05:15;;;;;;;;;1.50;1.50;;;;;14.38;56.45;100607.59;4977787;28;46041;-55
2022/09/26 01:07:40;;;;;;;;;1.00;1.00;;;;;14.89;56.54;100688.03;4994492;28;45470;-57
2022/09/26 01:10:06;;;;;;;;;2.00;2.00;;;;;14.89;55.99;100673.41;4994074;28;45429;-57
2022/09/26 01:12:33;;;;;;;;;1.75;1.75;;;;;14.94;55.93;100690.06;4996000;28;45527;-57
2022/09/26 01:14:59;;;;;;;;;1.00;1.00;;;;;14.81;56.50;100680.13;4993782;28;47095;-54
2022/09/26 01:17:25;;;;;;;;;3.50;2.00;;;;;14.80;56.37;100677.59;4994428;28;45427;-56
2022/09/26 01:20:11;;;;;;;;;1.00;1.00;;;;;14.72;56.33;100671.31;4993996;28;45429;-55
2022/09/26 01:22:49;;;;;;;;;0.80;0.00;;;;;14.69;56.51;100693.94;4979211;28;45408;-56
2022/09/26 01:25:39;;;;;;;;;1.00;1.00;;;;;14.70;56.94;100684.56;4995022;28;46009;-57
2022/09/26 01:28:29;;;;;;;;;3.00;1.80;;;;;14.74;56.55;100680.22;5008391;28;45544;-56
2022/09/26 01:31:20;;;;;;;;;1.20;1.20;;;;;14.76;56.59;100686.38;4996829;28;45304;-56
2022/09/26 01:34:35;;;;;;;;;0.80;0.00;;;;;14.80;56.37;100683.13;4999088;28;45410;-55
2022/09/26 01:37:09;;;;;;;;;1.00;1.00;;;;;14.85;56.63;100686.84;4991253;28;46613;-58
2022/09/26 01:39:43;;;;;;;;;1.80;1.80;;;;;14.87;56.34;100679.16;4997075;28;45770;-57
2022/09/26 01:42:23;;;;;;;;;1.00;1.00;;;;;14.78;56.14;100672.31;4997682;28;45725;-57
2022/09/26 01:45:11;;;;;;;;;2.20;1.00;;;;;14.81;55.98;100669.06;4997401;28;45474;-56
2022/09/26 01:47:47;;;;;;;;;3.40;1.00;;;;;14.73;56.18;100673.00;5014786;28;45400;-57
2022/09/26 01:50:18;;;;;;;;;1.20;1.20;;;;;14.62;56.63;100671.94;5013279;28;45398;-57
2022/09/26 01:52:48;;;;;;;;;1.00;1.00;;;;;14.60;56.28;100667.72;5015108;28;45391;-56
2022/09/26 01:55:20;;;;;;;;;1.60;1.60;;;;;14.65;56.87;100656.81;4997455;28;45729;-56
2022/09/26 01:57:49;;;;;;;;;3.00;2.00;;;;;14.73;56.23;100664.72;4996591;28;47445;-56
2022/09/26 02:00:15;;;;;;;;;0.80;0.80;;;;;14.75;56.04;100650.69;4980651;28;45339;-56
2022/09/26 02:02:43;;;;;;;;;1.00;1.00;;;;;14.69;55.88;100646.97;4963958;28;45817;-57
2022/09/26 02:05:25;;;;;;;;;0.60;0.60;;;;;14.63;55.69;100634.94;5016478;28;45488;-57
2022/09/26 02:07:54;;;;;;;;;1.00;1.00;;;;;14.49;56.04;100619.72;4996812;28;46333;-56
2022/09/26 02:10:27;;;;;;;;;3.00;1.20;;;;;14.57;55.79;100635.09;5014356;28;45342;-57
2022/09/26 02:12:55;;;;;;;;;2.00;1.00;;;;;14.37;55.75;100601.22;5018306;28;45446;-57
2022/09/26 02:15:20;;;;;;;;;1.00;1.00;;;;;14.52;55.38;100627.53;5017874;28;45517;-56
2022/09/26 02:17:48;;;;;;;;;1.00;1.00;;;;;14.59;55.46;100621.88;4999991;28;45679;-57
2022/09/26 02:20:26;;;;;;;;;0.80;0.60;;;;;14.57;55.49;100622.09;5017548;28;45379;-55
2022/09/26 02:22:51;;;;;;;;;0.00;0.00;;;;;14.55;55.69;100617.91;5000538;28;45344;-57
2022/09/26 02:25:17;;;;;;;;;1.00;1.00;;;;;14.44;55.39;100598.34;5000055;28;45400;-56
2022/09/26 02:27:43;;;;;;;;;2.20;1.80;;;;;14.57;54.98;100613.81;4999707;28;46937;-55
2022/09/26 02:30:09;;;;;;;;;4.50;2.00;;;;;14.61;55.42;100603.13;5017804;28;45375;-56
2022/09/26 02:32:35;;;;;;;;;3.50;1.00;;;;;14.50;55.58;100608.44;4999954;28;45437;-57
2022/09/26 02:35:00;;;;;;;;;1.60;1.20;;;;;14.45;55.54;100597.25;5018371;28;45417;-57
2022/09/26 02:37:27;;;;;;;;;2.00;2.00;;;;;14.51;55.39;100603.72;4999963;28;46289;-56
2022/09/26 02:39:53;;;;;;;;;0.80;0.80;;;;;14.32;55.69;100590.09;5017422;28;45569;-56
2022/09/26 02:42:43;;;;;;;;;0.00;0.00;;;;;14.32;56.38;100592.00;4983944;28;45693;-55
2022/09/26 02:45:28;;;;;;;;;0.60;0.00;;;;;14.21;55.77;100555.03;5017807;28;45570;-55
2022/09/26 02:48:11;;;;;;;;;0.20;0.20;;;;;14.50;55.83;100577.19;4983009;28;47542;-54
2022/09/26 02:51:11;;;;;;;;;0.40;0.00;;;;;14.47;55.95;100564.72;5016159;28;45393;-57
2022/09/26 02:53:48;;;;;;;;;1.00;1.00;;;;;14.42;55.29;100564.63;4999863;28;45447;-55
2022/09/26 02:56:19;;;;;;;;;1.00;1.00;;;;;14.47;55.29;100548.16;5017937;28;45779;-57
2022/09/26 02:59:02;;;;;;;;;1.00;1.00;;;;;14.51;55.75;100548.50;4999339;28;45398;-56
2022/09/26 03:01:39;;;;;;;;;1.00;0.80;;;;;14.33;55.40;100544.81;5017381;28;45387;-56
2022/09/26 03:04:15;;;;;;;;;2.00;1.00;;;;;14.43;55.51;100541.44;5017301;28;45375;-56
2022/09/26 03:06:42;;;;;;;;;1.80;1.80;;;;;14.26;55.54;100502.72;4971589;28;45524;-56
2022/09/26 03:09:08;;;;;;;;;0.00;0.00;;;;;14.30;55.38;100503.06;4979924;28;46378;-56
2022/09/26 03:11:33;;;;;;;;;1.00;1.00;;;;;14.22;55.39;100494.09;4997286;28;45367;-57
2022/09/26 03:13:59;;;;;;;;;0.75;0.75;;;;;14.32;56.32;100514.69;4980204;28;45907;-56
2022/09/26 03:16:26;;;;;;;;;1.50;1.00;;;;;14.26;55.40;100486.16;4963663;28;45590;-55
2022/09/26 03:19:04;;;;;;;;;0.60;0.60;;;;;14.44;55.57;100507.22;4963336;28;45825;-54
2022/09/26 03:21:29;;;;;;;;;0.80;0.80;;;;;14.42;55.39;100497.50;4964175;28;45513;-54
2022/09/26 03:23:56;;;;;;;;;0.50;0.50;;;;;14.37;55.21;100487.19;4997188;28;45496;-55
2022/09/26 03:26:23;;;;;;;;;0.00;0.00;;;;;14.37;55.81;100492.72;4980089;28;45530;-55
2022/09/26 03:28:50;;;;;;;;;0.00;0.00;;;;;14.45;55.98;100489.56;4963137;28;46447;-57
2022/09/26 03:31:19;;;;;;;;;1.60;0.40;;;;;14.46;55.38;100491.25;4996672;28;45388;-57
2022/09/26 03:33:45;;;;;;;;;1.00;1.00;;;;;14.41;55.69;100493.91;4996592;28;45324;-55
2022/09/26 03:36:11;;;;;;;;;0.00;0.00;;;;;14.30;56.08;100481.81;4996994;28;45643;-56
2022/09/26 03:38:37;;;;;;;;;1.00;1.00;;;;;14.17;56.36;100468.28;4996978;28;45975;-57
2022/09/26 03:41:03;;;;;;;;;0.00;0.00;;;;;14.27;56.12;100478.69;4996626;28;45586;-54
2022/09/26 03:43:30;;;;;;;;;1.50;1.25;;;;;14.21;55.90;100462.00;4996741;28;45363;-55
2022/09/26 03:45:56;;;;;;;;;1.60;1.60;;;;;14.36;56.03;100460.69;4996626;28;45502;-54
2022/09/26 03:48:21;;;;;;;;;3.25;3.00;;;;;14.36;55.69;100458.75;4996612;28;46272;-55
2022/09/26 03:50:47;;;;;;;;;0.00;0.00;;;;;14.41;56.21;100449.72;4978767;28;45413;-55
2022/09/26 03:53:12;;;;;;;;;1.00;1.00;;;;;14.36;55.49;100447.69;4996745;28;45694;-56
2022/09/26 03:55:38;;;;;;;;;1.75;1.75;;;;;14.34;55.86;100454.53;4996733;28;45496;-54
2022/09/26 03:58:03;;;;;;;;;2.50;1.50;;;;;14.37;55.56;100445.78;4996500;28;46232;-54
2022/09/26 04:00:29;;;;;;;;;0.00;0.00;;;;;14.32;55.90;100429.13;4996541;28;45425;-55
2022/09/26 04:02:54;;;;;;;;;1.00;1.00;;;;;14.40;55.32;100438.94;4978585;28;45430;-56
2022/09/26 04:05:20;;;;;;;;;0.75;0.75;;;;;14.35;55.66;100451.56;4997657;28;45494;-56
2022/09/26 04:07:46;;;;;;;;;1.50;1.50;;;;;14.36;55.78;100446.88;4998361;28;45713;-55
2022/09/26 04:10:12;;;;;;;;;0.00;0.00;;;;;14.22;55.20;100414.03;4997782;28;45394;-53
2022/09/26 04:12:38;;;;;;;;;0.20;0.20;;;;;14.35;55.38;100425.84;4998350;28;45363;-55
2022/09/26 04:15:07;;;;;;;;;1.80;1.00;;;;;14.09;55.25;100375.69;5016089;28;45701;-57
2022/09/26 04:17:32;;;;;;;;;0.60;0.60;;;;;14.41;55.51;100416.59;4997975;28;46205;-53
2022/09/26 04:19:58;;;;;;;;;2.00;2.00;;;;;14.44;54.81;100401.47;5015913;28;45449;-56
2022/09/26 04:22:24;;;;;;;;;1.00;1.00;;;;;14.45;54.94;100403.13;5015374;28;45418;-57
2022/09/26 04:24:50;;;;;;;;;0.00;0.00;;;;;14.44;54.60;100394.03;5016479;28;45335;-55
2022/09/26 04:27:17;;;;;;;;;2.40;1.20;;;;;14.42;54.89;100390.69;5015136;28;45874;-56
2022/09/26 04:29:44;;;;;;;;;1.80;1.80;;;;;14.20;54.88;100352.69;5016274;28;45379;-56
2022/09/26 04:32:09;;;;;;;;;0.40;0.40;;;;;14.31;54.42;100367.53;5015912;28;45379;-56
2022/09/26 04:34:37;;;;;;;;;2.00;2.00;;;;;14.43;55.25;100378.56;5014890;28;45375;-56
2022/09/26 04:37:02;;;;;;;;;0.00;0.00;;;;;14.29;54.84;100371.66;4998507;28;46593;-55
2022/09/26 04:39:28;;;;;;;;;0.50;0.50;;;;;14.32;54.71;100363.72;5015750;28;45691;-56
2022/09/26 04:41:54;;;;;;;;;2.75;1.00;;;;;14.05;54.87;100328.41;5015797;28;45445;-57
2022/09/26 04:44:19;;;;;;;;;2.00;1.25;;;;;14.30;54.84;100356.75;4981868;28;45593;-58
2022/09/26 04:46:45;;;;;;;;;1.00;1.00;;;;;14.33;54.25;100354.34;5015396;28;46852;-58
2022/09/26 04:49:10;;;;;;;;;1.00;1.00;;;;;14.15;54.72;100308.44;4998259;28;45384;-57
2022/09/26 04:51:36;;;;;;;;;0.75;0.75;;;;;14.39;54.35;100335.94;4997841;28;45549;-55
2022/09/26 04:54:01;;;;;;;;;1.00;1.00;;;;;14.32;54.24;100338.88;5015934;28;45335;-56
2022/09/26 04:56:28;;;;;;;;;2.00;1.00;;;;;14.12;54.72;100302.56;5015205;28;46228;-56
2022/09/26 04:58:56;;;;;;;;;0.80;0.80;;;;;14.27;54.77;100332.41;5015331;28;45452;-55
2022/09/26 05:01:22;;;;;;;;;1.20;1.20;;;;;14.27;54.48;100343.44;5015812;28;45909;-56
2022/09/26 05:03:47;;;;;;;;;2.00;0.00;;;;;14.24;54.27;100333.72;5015656;28;45495;-57
2022/09/26 05:06:13;;;;;;;;;1.00;1.00;;;;;14.12;55.21;100330.16;5015375;28;46184;-57
2022/09/26 05:08:40;;;;;;;;;1.00;1.00;;;;;13.89;54.66;100293.31;5015235;28;45397;-59
2022/09/26 05:11:06;;;;;;;;;1.00;0.00;;;;;14.10;55.18;100316.63;5015590;28;45412;-55
2022/09/26 05:13:31;;;;;;;;;1.00;1.00;;;;;14.15;55.30;100311.19;4997763;28;45800;-57
2022/09/26 05:15:58;;;;;;;;;2.25;1.25;;;;;14.16;54.95;100312.06;5015097;28;46444;-57
2022/09/26 05:18:24;;;;;;;;;1.00;1.00;;;;;14.12;55.38;100297.06;4997398;28;45390;-58
2022/09/26 05:20:49;;;;;;;;;1.00;1.00;;;;;14.22;54.94;100292.59;5014961;28;45598;-54
2022/09/26 05:26:18;;;;;;;;;1.00;1.00;;;;;14.28;54.74;100274.19;4999767;28;45324;-54
2022/09/26 05:28:52;;;;;;;;;1.20;1.20;;;;;14.34;54.52;100266.81;4993642;28;45613;-55
2022/09/26 05:31:18;;;;;;;;;0.20;0.20;;;;;14.14;54.40;100228.69;4995614;28;45436;-56
2022/09/26 05:33:44;;;;;;;;;2.00;2.00;;;;;14.40;54.52;100265.84;4993710;28;45358;-56
2022/09/26 05:36:10;;;;;;;;;3.60;2.40;;;;;14.41;54.95;100261.97;4993947;28;46479;-57
2022/09/26 05:38:35;;;;;;;;;2.20;1.00;;;;;14.44;54.74;100266.16;4995018;28;45409;-56
2022/09/26 05:41:01;;;;;;;;;2.00;2.00;;;;;14.18;55.28;100227.06;4995492;28;45507;-56
2022/09/26 05:43:32;;;;;;;;;1.00;1.00;;;;;14.40;55.15;100265.84;4995499;28;45580;-56
2022/09/26 05:45:58;;;;;;;;;1.00;1.00;;;;;14.41;54.75;100267.50;4997327;28;46009;-55
2022/09/26 05:48:25;;;;;;;;;1.60;1.60;;;;;14.32;55.04;100257.97;4998390;28;45339;-60
2022/09/26 05:50:51;;;;;;;;;0.00;0.00;;;;;14.09;55.14;100244.03;4998636;28;45259;-55
2022/09/26 05:53:16;;;;;;;;;1.20;1.20;;;;;14.15;55.10;100244.97;4999056;28;45556;-58
2022/09/26 05:55:42;;;;;;;;;2.75;1.75;;;;;14.27;55.52;100258.72;4998350;28;45365;-56
2022/09/26 05:58:08;;;;;;;;;1.00;1.00;;;;;14.31;55.51;100256.31;4998256;28;45625;-56
2022/09/26 06:00:34;;;;;;;;;2.40;1.60;;;;;14.34;55.27;100256.63;4998728;28;45315;-57
2022/09/26 06:03:02;;;;;;;;;1.00;1.00;;;;;14.35;55.49;100250.03;4997116;28;45450;-56
2022/09/26 06:05:28;;;;;;;;;1.00;1.00;;;;;14.30;55.42;100240.81;4981182;28;46716;-56
2022/09/26 06:07:53;;;;;;;;;1.75;1.75;;;;;14.18;56.02;100233.44;4996452;28;45319;-57
2022/09/26 06:10:19;;;;;;;;;3.00;2.00;;;;;14.22;56.18;100242.91;4998486;28;45595;-57
2022/09/26 06:12:45;;;;;;;;;0.75;0.75;;;;;14.20;56.26;100249.75;4996826;28;45529;-58
2022/09/26 06:15:10;;;;;;;;;2.00;2.00;;;;;13.99;56.25;100218.19;4998277;28;46317;-58
2022/09/26 06:17:36;;;;;;;;;0.50;0.50;;;;;14.10;56.09;100231.09;4980217;28;45644;-56
2022/09/26 06:20:02;;;;;;;;;2.00;1.00;;;;;14.22;56.04;100242.91;4998123;28;45353;-56
2022/09/26 06:22:28;;;;;;;;;0.80;0.80;;;;;14.20;56.04;100238.72;4998325;28;45589;-58
2022/09/26 06:24:54;;;;;;;;;0.50;0.50;;;;;14.27;56.15;100246.84;4996534;28;47709;-58
2022/09/26 06:27:21;;;;;;;;;0.25;0.25;;;;;14.02;56.64;100212.16;4996488;28;45625;-56
2022/09/26 06:29:47;;;;;;;;;3.60;1.80;;;;;14.12;56.25;100237.19;4997934;28;45410;-54
2022/09/26 06:32:12;;;;;;;;;2.00;2.00;;;;;14.17;56.37;100240.06;4996477;28;45556;-56
2022/09/26 06:34:38;;;;;;;;;1.00;1.00;;;;;14.04;56.34;100215.53;4997500;28;47451;-58
2022/09/26 06:37:03;;;;;;;;;1.00;1.00;;;;;14.16;56.16;100237.53;4997481;28;45388;-58
2022/09/26 06:39:35;;;;;;;;;2.00;2.00;;;;;13.93;56.54;100215.34;4997585;28;45619;-54
2022/09/26 06:42:02;;;;;;;;;3.00;3.00;;;;;14.05;57.02;100225.47;4996704;28;45424;-57
2022/09/26 06:44:28;;;;;;;;;0.20;0.20;;;;;14.01;56.97;100227.03;4997442;28;46702;-57
2022/09/26 06:46:54;;;;;;;;;2.25;2.25;;;;;13.99;56.65;100221.81;4997165;28;45391;-57
2022/09/26 06:49:19;;;;;;;;;2.00;1.00;;;;;14.00;56.89;100226.22;4997538;28;45430;-57
2022/09/26 06:51:50;;;;;;;;;2.00;2.00;;;;;14.10;56.74;100228.34;4965680;28;45614;-56
2022/09/26 06:54:15;;;;;;;;;1.40;1.40;;;;;14.12;56.46;100217.88;4996839;28;46010;-57
2022/09/26 06:56:41;;;;;;;;;2.00;1.00;;;;;14.16;57.12;100209.94;4996714;28;45574;-56
2022/09/26 06:59:07;;;;;;;;;3.25;2.75;;;;;14.06;56.63;100199.56;4997082;28;45382;-56
2022/09/26 07:01:33;;;;;;;;;2.00;1.00;;;;;14.05;57.24;100186.84;4997493;28;45406;-57
2022/09/26 07:03:58;;;;;;;;;2.00;0.50;;;;;13.90;57.01;100157.91;4997368;28;46196;-57
2022/09/26 07:06:24;;;;;;;;;3.50;1.50;;;;;14.31;56.37;100203.84;4995763;28;45426;-57
2022/09/26 07:08:51;;;;;;;;;1.00;1.00;;;;;14.25;56.21;100189.13;4996110;28;45403;-57
2022/09/26 07:11:16;;;;;;;;;2.00;1.80;;;;;14.34;56.71;100193.16;4997300;28;45412;-59
2022/09/26 07:13:43;;;;;;;;;1.00;1.00;;;;;14.34;56.38;100193.16;4995445;28;45390;-58
2022/09/26 07:16:09;;;;;;;;;1.80;1.80;;;;;14.37;56.66;100189.06;4995775;28;45425;-57
2022/09/26 07:18:36;;;;;;;;;1.50;1.50;;;;;14.39;55.90;100186.00;4979388;28;45485;-58
2022/09/26 07:21:06;;;;;;;;;1.40;1.00;;;;;14.43;55.89;100176.16;4997195;28;45343;-59
2022/09/26 07:23:31;;;;;;;;;1.20;1.20;;;;;14.45;55.84;100165.69;4996428;28;45907;-55
2022/09/26 07:25:58;;;;;;;;;1.75;1.00;;;;;14.41;55.94;100159.84;4997095;28;45387;-56
2022/09/26 07:28:24;;;;;;;;;2.00;1.00;;;;;14.53;55.50;100158.91;4995233;28;45458;-57
2022/09/26 07:30:50;;;;;;;;;1.40;1.40;;;;;14.48;55.43;100140.34;4979772;28;45384;-57
2022/09/26 07:33:15;;;;;;;;;1.75;1.00;;;;;14.35;55.44;100114.75;4978666;28;48271;-57
2022/09/26 07:35:43;;;;;;;;;1.00;1.00;;;;;14.59;55.50;100131.13;4995255;28;45422;-56
2022/09/26 07:38:08;;;;;;;;;3.00;1.00;;;;;14.64;54.95;100133.13;4996828;28;45322;-55
2022/09/26 07:40:34;;;;;;;;;1.00;1.00;;;;;14.71;55.15;100121.88;4979024;28;45380;-55
2022/09/26 07:43:00;;;;;;;;;3.25;1.00;;;;;14.75;55.12;100123.94;4996344;28;45546;-57
2022/09/26 07:50:59;;;;;;;;;0.80;0.40;;;;;14.77;55.27;100115.38;4996608;28;45381;-60
2022/09/26 07:53:25;;;;;;;;;1.20;1.20;;;;;14.58;54.79;100079.72;4994820;28;46704;-60
2022/09/26 07:56:09;;;;;;;;;2.00;1.00;;;;;14.40;54.40;100047.75;4994921;28;45366;-61
2022/09/26 07:58:40;;;;;;;;;1.60;1.60;;;;;14.87;54.19;100107.22;4980569;28;45430;-61
2022/09/26 08:01:12;;;;;;;;;3.00;1.60;;;;;14.67;54.49;100059.97;4996676;28;45522;-60
2022/09/26 08:03:41;;;;;;;;;2.00;1.00;;;;;14.97;53.99;100103.78;4995062;28;45488;-60
2022/09/26 08:06:07;;;;;;;;;1.00;1.00;;;;;14.73;53.87;100064.47;4996509;28;45524;-60
2022/09/26 08:08:32;;;;;;;;;1.00;1.00;;;;;14.96;53.70;100099.34;4995031;28;45286;-61
2022/09/26 08:10:58;;;;;;;;;2.00;2.00;;;;;14.97;54.26;100097.41;4996398;28;45238;-60
2022/09/26 08:13:26;;;;;;;;;3.00;2.00;;;;;14.54;53.91;100022.53;4996233;28;46104;-60
2022/09/26 08:15:52;;;;;;;;;2.20;2.20;;;;;15.00;53.53;100092.19;4994639;28;46341;-60
2022/09/26 08:18:18;;;;;;;;;1.00;1.00;;;;;15.04;53.69;100093.34;4995371;28;45622;-60
2022/09/26 08:20:46;;;;;;;;;3.75;2.00;;;;;15.08;53.71;100082.63;4996319;28;45533;-59
2022/09/26 08:23:13;;;;;;;;;1.60;1.60;;;;;15.13;53.84;100074.38;4995808;28;46248;-60
2022/09/26 08:25:39;;;;;;;;;3.00;1.80;;;;;15.23;53.00;100078.34;4994690;28;45456;-59
2022/09/26 08:28:08;;;;;;;;;1.60;1.60;;;;;15.28;52.84;100059.91;5009450;28;45453;-60
2022/09/26 08:30:34;;;;;;;;;2.60;1.00;;;;;15.39;53.02;100065.53;5016392;28;45495;-59
2022/09/26 08:33:00;;;;;;;;;1.25;1.25;;;;;15.38;52.99;100066.63;5015697;28;46524;-60
2022/09/26 08:35:27;;;;;;;;;1.20;1.20;;;;;15.25;52.35;100024.47;5015985;28;45209;-60
2022/09/26 08:37:52;;;;;;;;;1.80;1.00;;;;;15.54;52.98;100053.78;4998201;28;45470;-60
2022/09/26 08:40:20;;;;;;;;;1.00;1.00;;;;;15.48;52.60;100049.31;4998657;28;45549;-60
2022/09/26 08:43:36;;;;;;;;;1.80;1.00;;;;;15.59;52.48;100048.31;4982006;28;46084;-60
2022/09/26 08:49:04;;;;;;;;;1.00;1.00;;;;;15.75;52.05;100038.22;5016193;28;45380;-60
2022/09/26 08:51:36;;;;;;;;;1.00;1.00;;;;;15.75;52.30;100006.94;5016270;28;45578;-60
2022/09/26 08:54:21;;;;;;;;;1.20;1.00;;;;;15.96;51.35;100030.91;4997748;28;46033;-60
2022/09/26 08:56:53;;;;;;;;;0.00;0.00;;;;;15.95;51.36;100022.91;4988591;28;45608;-60
2022/09/26 08:59:26;;;;;;;;;1.00;1.00;;;;;15.89;51.38;99997.09;5017643;28;45435;-60
2022/09/26 09:01:53;;;;;;;;;4.20;1.80;;;;;16.04;51.11;100010.22;5035948;28;45430;-62
2022/09/26 09:04:39;;;;;;;;;4.40;2.00;;;;;16.04;51.29;100009.38;5000940;28;46376;-62
2022/09/26 09:07:10;;;;;;;;;1.00;1.00;;;;;15.98;50.69;99994.69;5011548;28;45334;-62
2022/09/26 09:09:37;;;;;;;;;1.40;1.40;;;;;16.11;50.74;100007.22;4981894;28;45370;-61
2022/09/26 09:12:19;;;;;;;;;1.20;1.20;;;;;15.93;50.09;99967.81;4997514;28;45378;-61
2022/09/26 09:15:03;;;;;;;;;2.80;2.80;;;;;16.22;50.75;99985.97;4982707;28;45652;-61
2022/09/26 09:17:36;;;;;;;;;2.00;2.00;;;;;15.71;50.59;99901.53;5003562;28;45551;-60
2022/09/26 09:20:13;;;;;;;;;0.00;0.00;;;;;16.26;50.05;99964.94;5007540;28;45545;-60
2022/09/26 09:23:11;;;;;;;;;2.00;2.00;;;;;16.30;49.79;99971.63;4977773;28;45440;-59
2022/09/26 09:26:04;;;;;;;;;2.00;2.00;;;;;16.43;49.79;99967.50;5000152;28;45564;-59
2022/09/26 09:28:48;;;;;;;;;0.20;0.20;;;;;16.46;49.52;99966.13;4985393;28;46805;-55
2022/09/26 09:31:14;;;;;;;;;1.40;1.40;;;;;16.25;49.39;99930.91;4987215;28;45701;-60
2022/09/26 09:33:43;;;;;;;;;8.75;8.75;;;;;16.42;49.08;99951.19;4990440;28;45459;-60
2022/09/26 09:36:17;;;;;;;;;0.60;0.60;;;;;16.38;49.08;99935.09;4987976;28;46223;-60
2022/09/26 09:38:44;;;;;;;;;1.00;1.00;;;;;16.30;49.46;99932.00;4972095;28;45512;-62
2022/09/26 09:41:20;;;;;;;;;3.00;1.20;;;;;16.21;49.02;99937.22;5005837;28;45469;-64
2022/09/26 09:43:53;;;;;;;;;2.60;1.00;;;;;16.18;49.58;99943.31;5009747;28;45464;-61
2022/09/26 09:46:29;;;;;;;;;0.80;0.80;;;;;16.19;49.57;99931.13;5010177;28;45447;-60
2022/09/26 09:49:19;;;;;;;;;2.00;2.00;;;;;16.27;49.83;99922.31;4990675;28;45529;-62
2022/09/26 09:52:18;;;;;;;;;2.20;1.00;;;;;16.34;49.17;99917.34;4968426;28;45662;-60
2022/09/26 09:55:21;;;;;;;;;2.40;2.20;;;;;16.38;48.82;99910.19;4985122;28;45715;-61
2022/09/26 09:58:02;;;;;;;;;1.80;1.80;;;;;16.44;48.97;99907.44;4979044;28;46864;-63
2022/09/26 10:00:28;;;;;;;;;3.00;2.00;;;;;16.44;48.89;99907.44;4998490;28;45445;-60
2022/09/26 10:03:06;;;;;;;;;2.00;2.00;;;;;16.43;49.16;99906.59;4986032;28;45442;-66
2022/09/26 10:05:43;;;;;;;;;2.80;1.80;;;;;16.25;48.81;99880.22;5005542;28;45553;-66
2022/09/26 10:08:18;;;;;;;;;2.40;2.40;;;;;16.29;49.54;99900.75;4996980;28;46449;-60
2022/09/26 10:11:11;;;;;;;;;5.20;2.40;;;;;16.09;49.24;99873.78;4988900;28;45550;-63
2022/09/26 10:13:41;;;;;;;;;6.60;6.00;;;;;15.97;49.42;99843.59;5001286;28;45818;-61
2022/09/26 10:16:09;;;;;;;;;4.60;4.60;;;;;16.10;50.04;99878.22;4990624;28;45556;-67
2022/09/26 10:19:12;;;;;;;;;14.80;14.00;;;;;16.14;49.77;99876.59;5000182;28;46504;-66
2022/09/26 10:21:39;;;;;;;;;1.60;1.60;;;;;16.12;49.95;99860.25;4970398;28;45760;-62
2022/09/26 10:24:06;;;;;;;;;1.20;1.20;;;;;16.16;50.32;99852.22;4953360;28;45772;-64
2022/09/26 10:26:35;;;;;;;;;1.80;1.80;;;;;16.10;49.75;99856.94;4970302;28;45610;-64
2022/09/26 10:29:20;;;;;;;;;3.20;1.20;;;;;16.09;50.05;99838.66;5012230;28;46617;-66
2022/09/26 10:31:47;;;;;;;;;1.60;1.60;;;;;16.00;50.28;99815.34;4997481;28;45610;-65
2022/09/26 10:34:24;;;;;;;;;0.60;0.60;;;;;15.90;50.51;99815.31;5002324;28;45511;-67
2022/09/26 10:36:49;;;;;;;;;1.40;1.00;;;;;16.02;50.61;99812.31;5013373;28;45864;-62
2022/09/26 10:42:00;;;;;;;;;1.80;1.80;;;;;16.04;51.16;99822.03;4993291;28;45933;-60
2022/09/26 10:44:35;;;;;;;;;1.00;1.00;;;;;16.06;51.52;99800.44;4999772;28;45506;-61
2022/09/26 10:47:07;;;;;;;;;2.20;2.20;;;;;16.07;51.68;99798.50;5013018;28;45453;-60
2022/09/26 10:49:38;;;;;;;;;1.00;1.00;;;;;16.02;51.23;99791.03;4994051;28;45848;-62
2022/09/26 10:52:19;;;;;;;;;2.20;2.00;;;;;16.02;52.35;99804.03;5012005;28;45763;-62
2022/09/26 10:55:00;;;;;;;;;1.20;0.00;;;;;15.97;52.64;99789.06;4995229;28;45642;-60
2022/09/26 10:57:29;;;;;;;;;1.20;1.00;;;;;16.04;52.68;99776.91;4998393;28;45781;-60
2022/09/26 10:59:55;;;;;;;;;1.00;1.00;;;;;16.07;52.50;99779.13;4969011;28;47985;-60
2022/09/26 11:02:22;;;;;;;;;2.00;1.20;;;;;16.05;52.24;99782.16;5009126;28;45720;-60
2022/09/26 11:07:34;;;;;;;;;3.20;3.20;;;;;15.79;53.50;99754.38;4996888;28;45888;-59
2022/09/26 11:10:04;;;;;;;;;1.00;1.00;;;;;15.92;53.92;99779.91;4994450;28;46788;-60
2022/09/26 11:12:34;;;;;;;;;4.00;2.60;;;;;15.84;54.60;99765.47;5012352;28;45393;-61
2022/09/26 11:15:11;;;;;;;;;2.40;2.00;;;;;15.67;54.92;99732.50;4995024;28;45532;-61
2022/09/26 11:17:49;;;;;;;;;1.80;1.00;;;;;15.85;56.07;99766.31;5001827;28;45437;-58
2022/09/26 11:20:20;;;;;;;;;3.00;3.00;;;;;15.82;56.07;99748.31;5012170;28;45959;-61
2022/09/26 11:23:19;;;;;;;;;1.00;1.00;;;;;15.82;55.89;99764.91;5010920;28;45791;-60
2022/09/26 11:26:10;;;;;;;;;2.40;2.40;;;;;15.71;56.93;99752.97;4990648;28;45663;-63
2022/09/26 11:28:52;;;;;;;;;3.20;3.20;;;;;15.72;58.34;99749.13;4981501;28;45573;-64
2022/09/26 11:31:29;;;;;;;;;2.40;2.40;;;;;15.68;58.50;99756.28;5029972;28;46192;-62
2022/09/26 11:33:58;;;;;;;;;1.40;1.40;;;;;15.65;58.67;99748.53;4998202;28;45450;-62
2022/09/26 11:36:45;;;;;;;;;2.80;1.40;;;;;15.57;59.36;99744.34;4997063;28;45524;-61
2022/09/26 11:39:18;;;;;;;;;1.80;1.20;;;;;15.47;60.33;99730.47;5032243;28;45465;-62
2022/09/26 11:41:56;;;;;;;;;4.00;2.60;;;;;15.42;62.16;99716.63;4992902;28;46794;-62
2022/09/26 11:44:34;;;;;;;;;1.40;1.40;;;;;15.40;62.55;99722.44;5011900;28;45429;-61
2022/09/26 11:47:26;;;;;;;;;3.80;2.80;;;;;15.35;63.39;99710.50;5010836;28;45399;-62
2022/09/26 11:50:22;;;;;;;;;1.20;1.20;;;;;15.16;63.54;99708.22;4997435;28;45607;-63
2022/09/26 11:53:06;;;;;;;;;1.00;1.00;;;;;15.04;64.59;99676.09;5007486;28;46327;-62
2022/09/26 11:55:52;;;;;;;;;4.80;3.00;;;;;15.01;65.23;99690.44;5010415;28;45976;-62
2022/09/26 11:58:42;;;;;;;;;1.60;1.60;;;;;14.85;65.54;99663.81;5012033;28;45565;-61
2022/09/26 12:01:29;;;;;;;;;1.60;1.60;;;;;14.86;65.90;99682.91;5012264;28;45379;-60